Home   Weather   Cayenne   Past weeks
Flag for French Guiana

Past Weather in Cayenne, French Guiana — Yesterday and Last 2 Weeks

Currently: 73 °F. Clear. (Weather station: Cayenne / Rochambeau, French Guiana). See more current weather

Past Weather in Cayenne — Graph

°F

Cayenne Temperature Yesterday

Maximum temperature yesterday: 90 °F (at 12:30 pm)
Minimum temperature yesterday: 73 °F (at 6:00 am)
Average temperature yesterday: 81 °F

High & Low Weather Summary for the Past Weeks

 TemperatureHumidityPressure
High93 °F (Aug 8, 2:00 pm)100% (Aug 4, 6:30 am)29.98 "Hg (Aug 4, 6:30 am)
Low70 °F (Aug 5, 4:30 am)49% (Aug 8, 1:30 pm)29.80 "Hg (Aug 4, 5:00 pm)
Average80 °F81%29.89 "Hg
* Reported Aug 4 5:00 am — Aug 19 5:00 am, Cayenne. Weather by CustomWeather, © 2022

Note: Actual official high and low records may vary slightly from our data, if they occured in-between our weather recording intervals... More about our weather records

Cayenne Weather History for the Previous 24 Hours

Scroll right to see more
 ConditionsComfort  
Time TempWeatherWind HumidityBarometerVisibility
5:00 am
Fri, Aug 19
73 °FClear.No wind94%29.89 "Hg10 mi
4:30 am72 °FClear.No wind100%29.89 "Hg10 mi
4:00 am73 °FClear.No wind94%29.89 "Hg10 mi
3:30 am75 °FClear.No wind89%29.89 "Hg10 mi
3:00 am75 °FClear.No wind94%29.89 "Hg10 mi
2:00 am75 °FClear.No wind94%29.92 "Hg10 mi
1:30 am75 °FClear.2 mph94%29.95 "Hg10 mi
1:00 am75 °FClear.5 mph94%29.95 "Hg10 mi
12:30 am75 °FClear.1 mph94%29.95 "Hg10 mi
12:00 am75 °FClear.No wind89%29.95 "Hg10 mi
11:30 pm
Thu, Aug 18
77 °FClear.No wind89%29.95 "Hg10 mi
11:00 pm77 °FClear.2 mph89%29.95 "Hg10 mi
10:00 pm79 °FClear.1 mph84%29.92 "Hg10 mi
8:30 pm79 °FClear.6 mph84%29.89 "Hg10 mi
8:00 pm81 °FClear.3 mph79%29.89 "Hg10 mi
6:00 pm84 °FWarm.10 mph70%29.83 "HgN/A
5:00 pm86 °FPassing clouds.12 mph66%29.80 "HgN/A
4:30 pm86 °FSunny.14 mph66%29.80 "Hg10 mi
4:00 pm88 °FPassing clouds.14 mph62%29.80 "HgN/A
3:30 pm88 °FWarm.13 mph62%29.80 "HgN/A
3:00 pm88 °FPassing clouds.14 mph62%29.83 "HgN/A
2:00 pm88 °FBroken clouds.12 mph66%29.83 "HgN/A
1:00 pm90 °FPassing clouds.9 mph59%29.86 "HgN/A
12:30 pm90 °FBroken clouds.8 mph55%29.89 "HgN/A
12:00 pm88 °FPartly sunny.7 mph59%29.89 "HgN/A
11:30 am88 °FBroken clouds.8 mph59%29.89 "HgN/A
11:00 am86 °FPassing clouds.8 mph62%29.89 "HgN/A
10:00 am84 °FPassing clouds.6 mph74%29.92 "HgN/A
9:00 am84 °FPassing clouds.5 mph74%29.92 "HgN/A
8:00 am77 °FSunny.3 mph94%29.89 "Hg10 mi
7:00 am73 °FSunny.No wind100%29.86 "Hg10 mi
6:00 am73 °FClear.2 mph94%29.86 "Hg10 mi
Weather by CustomWeather, © 2022

See weather overview